Time;durP1;ratioP1;P1;durP2;ratioP2;P2;SDS_P1;SDS_P2;PMS_P1;PMS_P2;Temp;Humidity;BMP_temperature;BMP_pressure;BME280_temperature;BME280_humidity;BME280_pressure;Samples;Min_cycle;Max_cycle;Signal;HPM_P1;HPM_P2
2023/04/24 00:00:35;;;;;;;0.60;0.57;;;10.60;99.90;;;;;;5108779;28;20044;-63
2023/04/24 00:03:02;;;;;;;1.05;0.80;;;10.50;99.90;;;;;;5107866;28;20039;-63
2023/04/24 00:05:28;;;;;;;0.70;0.35;;;10.40;99.90;;;;;;5109410;28;20108;-64
2023/04/24 00:07:55;;;;;;;0.30;0.28;;;10.40;99.90;;;;;;5107217;28;20481;-64
2023/04/24 00:10:21;;;;;;;0.30;0.30;;;10.40;99.90;;;;;;5107429;28;20092;-64
2023/04/24 00:12:47;;;;;;;0.50;0.40;;;10.40;99.90;;;;;;5107359;28;20101;-65
2023/04/24 00:15:13;;;;;;;1.13;0.55;;;10.40;99.90;;;;;;5107712;28;20071;-64
2023/04/24 00:17:38;;;;;;;0.98;0.60;;;10.30;99.90;;;;;;5107934;28;20109;-64
2023/04/24 00:20:06;;;;;;;2.20;0.82;;;10.30;99.90;;;;;;5107149;28;20489;-64
2023/04/24 00:22:32;;;;;;;0.75;0.30;;;10.30;99.90;;;;;;5109414;28;20043;-64
2023/04/24 00:24:58;;;;;;;0.82;0.82;;;10.30;99.90;;;;;;5107686;28;20051;-64
2023/04/24 00:27:25;;;;;;;0.55;0.38;;;10.20;99.90;;;;;;5108610;28;20072;-65
2023/04/24 00:29:51;;;;;;;0.50;0.30;;;10.20;99.90;;;;;;5107623;28;20043;-64
2023/04/24 00:32:17;;;;;;;0.28;0.25;;;10.20;99.90;;;;;;5090894;28;20432;-65
2023/04/24 00:34:43;;;;;;;0.82;0.50;;;10.20;99.90;;;;;;5106931;28;20036;-64
2023/04/24 00:37:09;;;;;;;0.30;0.25;;;10.20;99.90;;;;;;5090880;28;20096;-64
2023/04/24 00:39:34;;;;;;;0.43;0.40;;;10.20;99.90;;;;;;5107487;28;20386;-64
2023/04/24 00:42:01;;;;;;;0.60;0.45;;;10.20;99.90;;;;;;5108364;28;20067;-65
2023/04/24 00:44:28;;;;;;;0.80;0.60;;;10.20;99.90;;;;;;5108799;28;20152;-65
2023/04/24 00:46:54;;;;;;;0.30;0.30;;;10.20;99.90;;;;;;5094383;28;20078;-65
2023/04/24 00:49:22;;;;;;;0.47;0.45;;;10.20;99.90;;;;;;5111973;28;20069;-65
2023/04/24 00:51:49;;;;;;;1.08;0.50;;;10.10;99.90;;;;;;5112620;28;20519;-65
2023/04/24 00:54:16;;;;;;;0.22;0.13;;;10.10;99.90;;;;;;5094555;28;20139;-65
2023/04/24 00:56:43;;;;;;;1.20;0.55;;;10.10;99.90;;;;;;5112194;28;20089;-65
2023/04/24 00:59:09;;;;;;;1.10;0.50;;;10.10;99.90;;;;;;5094212;28;20169;-64
2023/04/24 01:01:35;;;;;;;0.20;0.20;;;10.10;99.90;;;;;;5110649;28;20046;-65
2023/04/24 01:04:02;;;;;;;0.52;0.45;;;10.10;99.90;;;;;;5111475;28;20081;-65
2023/04/24 01:06:30;;;;;;;0.95;0.45;;;10.10;99.90;;;;;;5111087;28;20036;-65
2023/04/24 01:08:58;;;;;;;0.35;0.35;;;10.10;99.90;;;;;;5110445;28;20465;-65
2023/04/24 01:11:24;;;;;;;0.60;0.47;;;10.00;99.90;;;;;;5110647;28;20501;-65
2023/04/24 01:13:51;;;;;;;0.55;0.45;;;10.10;99.90;;;;;;5110889;28;20035;-65
2023/04/24 01:16:17;;;;;;;1.30;0.63;;;10.10;99.90;;;;;;5093234;28;20079;-65
2023/04/24 01:18:43;;;;;;;1.05;0.60;;;10.00;99.90;;;;;;5093817;28;20046;-65
2023/04/24 01:21:13;;;;;;;1.38;0.82;;;10.10;99.90;;;;;;5111006;28;20054;-65
2023/04/24 01:23:39;;;;;;;1.30;0.43;;;10.00;99.90;;;;;;5110496;28;20036;-65
2023/04/24 01:26:05;;;;;;;1.40;0.60;;;10.10;99.90;;;;;;5093737;28;20088;-65
2023/04/24 01:28:31;;;;;;;1.95;0.82;;;10.10;99.90;;;;;;5112169;28;20052;-64
2023/04/24 01:30:57;;;;;;;0.85;0.50;;;10.10;99.90;;;;;;5109905;28;20040;-65
2023/04/24 01:33:24;;;;;;;0.70;0.60;;;10.10;99.90;;;;;;5110643;28;20046;-65
2023/04/24 01:35:50;;;;;;;0.90;0.57;;;10.10;99.90;;;;;;5112241;28;20031;-65
2023/04/24 01:38:16;;;;;;;1.23;0.77;;;10.10;99.90;;;;;;5110198;28;20039;-65
2023/04/24 01:40:41;;;;;;;1.85;0.82;;;10.10;99.90;;;;;;5111926;28;20450;-65
2023/04/24 01:43:07;;;;;;;0.85;0.60;;;10.10;99.90;;;;;;5093290;28;20039;-65
2023/04/24 01:45:33;;;;;;;1.90;0.63;;;10.10;99.90;;;;;;5111363;27;20039;-65
2023/04/24 01:48:00;;;;;;;0.93;0.57;;;10.10;99.90;;;;;;5110278;28;20053;-65
2023/04/24 01:50:26;;;;;;;1.70;0.65;;;10.10;99.90;;;;;;5111672;28;20043;-65
2023/04/24 01:52:52;;;;;;;0.70;0.52;;;10.10;99.90;;;;;;5111271;28;20047;-65
2023/04/24 01:55:17;;;;;;;1.67;1.13;;;10.10;99.90;;;;;;5109620;28;20079;-65
2023/04/24 01:57:43;;;;;;;1.17;0.68;;;10.10;99.90;;;;;;5092392;28;20036;-64
2023/04/24 02:00:11;;;;;;;0.95;0.82;;;10.10;99.90;;;;;;5110492;28;20039;-65
2023/04/24 02:02:38;;;;;;;1.52;0.90;;;10.10;99.90;;;;;;5110187;28;20035;-65
2023/04/24 02:05:07;;;;;;;2.50;1.10;;;10.10;99.90;;;;;;5109378;28;20544;-64
2023/04/24 02:07:32;;;;;;;2.25;1.02;;;10.10;99.90;;;;;;5109944;28;20039;-65
2023/04/24 02:09:58;;;;;;;2.95;1.58;;;10.10;99.90;;;;;;5109899;28;20035;-65
2023/04/24 02:12:24;;;;;;;1.00;0.70;;;10.10;99.90;;;;;;5109032;28;20048;-65
2023/04/24 02:14:50;;;;;;;1.45;1.10;;;10.10;99.90;;;;;;5109999;28;20089;-65
2023/04/24 02:17:16;;;;;;;1.73;0.90;;;10.10;99.90;;;;;;5109738;28;20405;-65
2023/04/24 02:19:42;;;;;;;3.97;1.38;;;10.10;99.90;;;;;;5109035;28;20044;-65
2023/04/24 02:22:08;;;;;;;1.65;0.90;;;10.10;99.90;;;;;;5109804;28;20047;-65
2023/04/24 02:24:34;;;;;;;3.10;1.60;;;10.10;99.90;;;;;;5092511;28;20611;-65
2023/04/24 02:27:00;;;;;;;1.83;0.80;;;10.10;99.90;;;;;;5108891;28;20039;-66
2023/04/24 02:29:25;;;;;;;3.25;1.85;;;10.10;99.90;;;;;;5111184;28;20047;-65
2023/04/24 02:31:51;;;;;;;2.30;1.27;;;10.10;99.90;;;;;;5109796;28;20039;-66
2023/04/24 02:34:17;;;;;;;3.30;1.92;;;10.20;99.90;;;;;;5110096;28;20580;-65
2023/04/24 02:36:42;;;;;;;3.10;1.65;;;10.20;99.90;;;;;;5092552;28;20123;-66
2023/04/24 02:39:08;;;;;;;2.67;1.17;;;10.20;99.90;;;;;;5109336;28;20039;-65
2023/04/24 02:41:34;;;;;;;2.45;1.33;;;10.20;99.90;;;;;;5108642;28;20119;-65
2023/04/24 02:44:00;;;;;;;3.22;1.85;;;10.20;99.90;;;;;;5110285;28;20027;-66
2023/04/24 02:46:25;;;;;;;2.35;1.55;;;10.20;99.90;;;;;;5109086;28;20031;-65
2023/04/24 02:48:51;;;;;;;3.50;1.75;;;10.20;99.90;;;;;;5108460;28;20054;-65
2023/04/24 02:51:17;;;;;;;2.35;1.35;;;10.10;99.90;;;;;;5108938;28;20078;-66
2023/04/24 02:53:43;;;;;;;3.22;1.60;;;10.10;99.90;;;;;;5101349;28;20062;-65
2023/04/24 02:56:12;;;;;;;4.03;1.88;;;10.10;99.90;;;;;;5088483;28;20043;-65
2023/04/24 02:58:37;;;;;;;2.38;1.15;;;10.10;99.90;;;;;;5088866;28;20085;-65
2023/04/24 03:01:03;;;;;;;1.80;1.48;;;10.10;99.90;;;;;;5089196;28;20040;-65
2023/04/24 03:03:30;;;;;;;2.92;1.45;;;10.10;99.90;;;;;;5088971;28;20119;-65
2023/04/24 03:05:56;;;;;;;2.88;1.80;;;10.10;99.90;;;;;;5088465;28;20159;-66
2023/04/24 03:08:22;;;;;;;2.05;1.10;;;10.10;99.90;;;;;;5070515;28;20469;-65
2023/04/24 03:10:49;;;;;;;2.22;1.40;;;10.10;99.90;;;;;;5089729;28;20044;-65
2023/04/24 03:13:16;;;;;;;2.33;1.20;;;10.10;99.90;;;;;;5088333;28;20048;-65
2023/04/24 03:15:42;;;;;;;3.13;1.63;;;10.10;99.90;;;;;;5071109;28;20491;-65
2023/04/24 03:18:08;;;;;;;3.85;1.65;;;10.10;99.90;;;;;;5071488;28;20043;-66
2023/04/24 03:20:34;;;;;;;3.78;1.48;;;10.10;99.90;;;;;;5088079;28;20036;-66
2023/04/24 03:22:59;;;;;;;4.20;1.83;;;10.10;99.90;;;;;;5087947;28;20040;-66
2023/04/24 03:25:25;;;;;;;2.58;0.90;;;10.10;99.90;;;;;;5089261;28;20119;-65
2023/04/24 03:27:51;;;;;;;3.88;1.63;;;10.10;99.90;;;;;;5089318;28;20119;-66
2023/04/24 03:30:17;;;;;;;3.38;1.95;;;10.10;99.90;;;;;;5087507;28;20040;-65
2023/04/24 03:32:42;;;;;;;3.78;1.80;;;10.00;99.90;;;;;;5089773;28;20070;-66
2023/04/24 03:35:09;;;;;;;5.43;1.95;;;10.10;99.90;;;;;;5089087;28;20039;-66
2023/04/24 03:37:34;;;;;;;6.93;1.58;;;10.10;99.90;;;;;;5087371;28;20097;-66
2023/04/24 03:40:01;;;;;;;1.83;1.13;;;10.10;99.90;;;;;;5087962;28;20438;-66
2023/04/24 03:42:27;;;;;;;3.50;1.73;;;10.10;99.90;;;;;;5089125;28;20051;-65
2023/04/24 03:44:52;;;;;;;3.13;1.30;;;10.10;99.90;;;;;;5087431;28;20036;-64
2023/04/24 03:47:18;;;;;;;1.55;0.95;;;10.10;99.90;;;;;;5070851;28;20093;-64
2023/04/24 03:49:44;;;;;;;2.80;1.45;;;10.10;99.90;;;;;;5070138;28;20047;-64
2023/04/24 03:52:10;;;;;;;1.77;0.90;;;10.20;99.90;;;;;;5087671;28;20252;-65
2023/04/24 03:54:36;;;;;;;2.47;0.73;;;10.20;99.90;;;;;;5087604;28;20131;-65
2023/04/24 03:57:01;;;;;;;1.35;0.60;;;10.20;99.90;;;;;;5088501;28;20036;-65
2023/04/24 03:59:27;;;;;;;1.55;0.60;;;10.20;99.90;;;;;;5070763;28;20036;-64
2023/04/24 04:01:53;;;;;;;1.48;0.63;;;10.20;99.90;;;;;;5089261;28;20031;-65
2023/04/24 04:04:19;;;;;;;2.90;0.90;;;10.20;99.90;;;;;;5087224;28;20040;-64
2023/04/24 04:06:46;;;;;;;1.20;0.70;;;10.20;99.90;;;;;;5087741;28;20500;-64
2023/04/24 04:09:12;;;;;;;2.80;0.77;;;10.20;99.90;;;;;;5087823;28;20075;-65
2023/04/24 04:11:37;;;;;;;4.40;1.17;;;10.20;99.90;;;;;;5086795;28;20510;-65
2023/04/24 04:14:04;;;;;;;1.33;0.50;;;10.10;99.90;;;;;;5070897;28;20398;-65
2023/04/24 04:16:29;;;;;;;2.72;1.25;;;10.20;99.90;;;;;;5088606;28;20032;-65
2023/04/24 04:18:55;;;;;;;2.03;1.23;;;10.10;99.90;;;;;;5088660;28;20039;-65
2023/04/24 04:21:21;;;;;;;1.75;0.95;;;10.10;99.90;;;;;;5091748;28;20069;-65
2023/04/24 04:23:47;;;;;;;2.50;1.30;;;10.10;99.90;;;;;;5091467;28;20077;-66
2023/04/24 04:26:13;;;;;;;2.25;1.13;;;10.10;99.90;;;;;;5090761;28;20044;-66
2023/04/24 04:28:39;;;;;;;2.05;1.08;;;10.10;99.90;;;;;;5091444;28;20194;-65
2023/04/24 04:31:07;;;;;;;1.50;0.88;;;10.10;99.90;;;;;;5092985;28;20040;-65
2023/04/24 04:33:33;;;;;;;1.58;0.82;;;10.00;99.90;;;;;;5090766;28;20040;-65
2023/04/24 04:35:59;;;;;;;3.13;1.23;;;10.00;99.90;;;;;;5091606;28;20173;-65
2023/04/24 04:38:29;;;;;;;2.03;0.98;;;10.00;99.90;;;;;;5091668;28;20039;-63
2023/04/24 04:40:56;;;;;;;1.77;0.57;;;9.90;99.90;;;;;;5092192;28;20036;-65
2023/04/24 04:43:26;;;;;;;1.35;0.70;;;9.90;99.90;;;;;;5091126;28;20044;-65
2023/04/24 04:45:52;;;;;;;0.95;0.40;;;9.90;99.90;;;;;;5090790;28;20094;-64
2023/04/24 04:48:18;;;;;;;1.63;0.85;;;9.90;99.90;;;;;;5091279;28;20131;-64
2023/04/24 04:50:44;;;;;;;1.25;0.93;;;9.90;99.90;;;;;;5090990;28;20563;-64
2023/04/24 04:53:10;;;;;;;1.00;0.57;;;9.90;99.90;;;;;;5091850;28;20445;-64
2023/04/24 04:55:37;;;;;;;1.75;0.75;;;9.90;99.90;;;;;;5091177;28;20047;-64
2023/04/24 04:58:03;;;;;;;2.00;0.85;;;9.90;99.90;;;;;;5090925;28;20040;-64
2023/04/24 05:00:33;;;;;;;1.70;0.80;;;9.90;99.90;;;;;;5090678;28;20051;-65
2023/04/24 05:02:59;;;;;;;1.52;0.60;;;9.90;99.90;;;;;;5090851;28;20048;-65
2023/04/24 05:05:25;;;;;;;1.15;0.68;;;9.80;99.90;;;;;;5091232;28;20051;-65
2023/04/24 05:07:51;;;;;;;1.52;0.95;;;9.90;99.90;;;;;;5090303;28;20417;-65
2023/04/24 05:10:17;;;;;;;1.20;0.63;;;9.90;99.90;;;;;;5091574;28;20032;-65
2023/04/24 05:12:43;;;;;;;1.58;0.60;;;9.80;99.90;;;;;;5090561;28;20051;-65
2023/04/24 05:15:09;;;;;;;1.42;0.90;;;9.80;99.90;;;;;;5089819;28;20036;-66
2023/04/24 05:17:35;;;;;;;1.85;0.90;;;9.80;99.90;;;;;;5090493;28;20036;-65
2023/04/24 05:20:05;;;;;;;0.45;0.38;;;9.80;99.90;;;;;;5090733;28;20142;-66
2023/04/24 05:22:31;;;;;;;1.08;0.60;;;9.80;99.90;;;;;;5072973;28;20043;-65
2023/04/24 05:24:57;;;;;;;0.40;0.40;;;9.80;99.90;;;;;;5090672;28;20390;-66
2023/04/24 05:27:23;;;;;;;0.85;0.40;;;9.80;99.90;;;;;;5091623;28;20036;-65
2023/04/24 05:29:48;;;;;;;0.30;0.22;;;9.80;99.90;;;;;;5089151;28;20032;-64
2023/04/24 05:32:14;;;;;;;0.20;0.20;;;9.80;99.90;;;;;;5090406;28;20047;-66
2023/04/24 05:34:40;;;;;;;0.57;0.45;;;9.70;99.90;;;;;;5090845;28;20076;-65
2023/04/24 05:37:08;;;;;;;0.57;0.35;;;9.70;99.90;;;;;;5090229;28;20036;-65
2023/04/24 05:39:35;;;;;;;0.43;0.32;;;9.70;99.90;;;;;;5090337;28;20455;-64
2023/04/24 05:42:01;;;;;;;0.85;0.30;;;9.70;99.90;;;;;;5089652;28;20073;-64
2023/04/24 05:44:27;;;;;;;1.48;0.55;;;9.70;99.90;;;;;;5090083;28;20497;-65
2023/04/24 05:46:55;;;;;;;1.05;0.50;;;9.70;99.90;;;;;;5090069;28;20131;-65
2023/04/24 05:49:20;;;;;;;5.72;1.38;;;9.70;99.90;;;;;;5072056;28;20510;-65
2023/04/24 05:51:46;;;;;;;1.48;0.82;;;9.80;99.90;;;;;;5090566;28;20043;-64
2023/04/24 05:54:12;;;;;;;2.22;1.00;;;9.80;99.90;;;;;;5091865;28;20040;-64
2023/04/24 05:56:38;;;;;;;2.25;0.70;;;9.70;99.90;;;;;;5073401;28;20036;-64
2023/04/24 05:59:04;;;;;;;0.75;0.55;;;9.70;99.90;;;;;;5090880;28;20075;-65
2023/04/24 06:01:31;;;;;;;1.50;0.90;;;9.70;99.90;;;;;;5091739;28;20083;-65
2023/04/24 06:03:57;;;;;;;1.20;0.68;;;9.80;99.90;;;;;;5091657;28;20036;-65
2023/04/24 06:06:23;;;;;;;1.90;0.90;;;9.70;99.90;;;;;;5073747;28;20485;-64
2023/04/24 06:08:49;;;;;;;1.63;1.00;;;9.70;99.90;;;;;;5074002;28;20050;-65
2023/04/24 06:11:15;;;;;;;2.10;1.13;;;9.70;99.90;;;;;;5072518;28;20486;-64
2023/04/24 06:13:41;;;;;;;1.45;0.73;;;9.70;99.90;;;;;;5089550;28;20040;-64
2023/04/24 06:16:07;;;;;;;2.13;0.70;;;9.70;99.90;;;;;;5090631;28;20032;-65
2023/04/24 06:18:33;;;;;;;1.23;0.60;;;9.70;99.90;;;;;;5089635;28;20684;-64
2023/04/24 06:20:59;;;;;;;1.35;0.50;;;9.70;99.90;;;;;;5091703;28;20044;-64
2023/04/24 06:23:25;;;;;;;1.40;0.88;;;9.70;99.90;;;;;;5090774;28;20125;-65
2023/04/24 06:25:52;;;;;;;1.30;0.68;;;9.70;99.90;;;;;;5091349;28;20039;-64
2023/04/24 06:28:18;;;;;;;1.63;0.70;;;9.70;99.90;;;;;;5091608;28;20040;-65
2023/04/24 06:30:43;;;;;;;1.50;0.85;;;9.70;99.90;;;;;;5089795;28;20043;-64
2023/04/24 06:33:09;;;;;;;0.73;0.50;;;9.70;99.90;;;;;;5090505;28;20044;-64
2023/04/24 06:35:37;;;;;;;1.50;0.60;;;9.80;99.90;;;;;;5090099;28;20616;-64
2023/04/24 06:38:03;;;;;;;0.25;0.20;;;9.80;99.90;;;;;;5089568;28;20447;-65
2023/04/24 06:40:29;;;;;;;1.40;0.45;;;9.80;99.90;;;;;;5089861;28;20075;-65
2023/04/24 06:42:55;;;;;;;0.75;0.45;;;9.80;99.90;;;;;;5089971;28;20047;-65
2023/04/24 06:45:21;;;;;;;1.08;0.30;;;9.80;99.90;;;;;;5089179;28;20050;-65
2023/04/24 06:47:47;;;;;;;0.77;0.60;;;9.80;99.90;;;;;;5089905;28;20126;-65
2023/04/24 06:50:13;;;;;;;0.35;0.20;;;9.80;99.90;;;;;;5088782;28;20087;-65
2023/04/24 06:52:39;;;;;;;0.20;0.20;;;9.80;99.90;;;;;;5088577;28;20040;-65
2023/04/24 06:55:05;;;;;;;0.57;0.43;;;9.80;99.90;;;;;;5091006;28;20386;-64
2023/04/24 06:57:31;;;;;;;0.35;0.28;;;9.70;99.90;;;;;;5089856;28;20089;-64
2023/04/24 06:59:57;;;;;;;0.40;0.32;;;9.80;99.90;;;;;;5089224;28;20134;-65
2023/04/24 07:02:23;;;;;;;0.28;0.22;;;9.80;99.90;;;;;;5091056;28;20533;-64
2023/04/24 07:04:49;;;;;;;0.52;0.40;;;9.70;99.90;;;;;;5072306;28;20063;-65
2023/04/24 07:07:18;;;;;;;2.13;0.40;;;9.70;99.90;;;;;;5072361;28;20131;-64
2023/04/24 07:09:45;;;;;;;2.83;0.70;;;9.70;99.90;;;;;;5089275;28;20120;-65
2023/04/24 07:12:12;;;;;;;7.82;2.05;;;9.70;99.90;;;;;;5090673;28;20098;-65
2023/04/24 07:14:38;;;;;;;5.85;1.08;;;9.70;99.90;;;;;;5088687;28;20044;-65
2023/04/24 07:17:05;;;;;;;3.85;1.60;;;9.60;99.90;;;;;;5089704;28;20040;-63
2023/04/24 07:19:31;;;;;;;2.75;1.73;;;9.60;99.90;;;;;;5089376;28;20501;-64
2023/04/24 07:21:58;;;;;;;8.90;2.30;;;9.60;99.90;;;;;;5088710;28;20040;-64
2023/04/24 07:24:24;;;;;;;5.40;2.92;;;9.50;99.90;;;;;;5089368;28;20491;-66
2023/04/24 07:26:51;;;;;;;2.78;1.70;;;9.40;99.90;;;;;;5089940;28;20040;-64
2023/04/24 07:29:17;;;;;;;4.95;2.03;;;9.40;99.90;;;;;;5089318;28;20051;-64
2023/04/24 07:31:43;;;;;;;4.75;2.45;;;9.40;99.90;;;;;;5089245;28;20554;-64
2023/04/24 07:34:09;;;;;;;6.57;2.50;;;9.40;99.90;;;;;;5071683;28;20044;-64
2023/04/24 07:36:35;;;;;;;7.65;2.83;;;9.30;99.90;;;;;;5088936;28;20036;-64
2023/04/24 07:39:01;;;;;;;5.15;3.05;;;9.20;99.90;;;;;;5089142;28;20252;-64
2023/04/24 07:41:27;;;;;;;4.13;1.95;;;9.30;99.90;;;;;;5089631;28;20428;-64
2023/04/24 07:43:53;;;;;;;7.97;2.05;;;9.30;99.90;;;;;;5088814;28;20481;-64
2023/04/24 07:46:20;;;;;;;6.43;2.50;;;9.20;99.90;;;;;;5090178;28;20050;-65
2023/04/24 07:48:47;;;;;;;5.60;2.42;;;9.20;99.90;;;;;;5089159;28;20036;-64
2023/04/24 07:51:14;;;;;;;12.23;2.70;;;9.20;99.90;;;;;;5090270;28;20036;-65
2023/04/24 07:53:41;;;;;;;5.55;2.45;;;9.20;99.90;;;;;;5089891;28;20042;-65
2023/04/24 07:56:07;;;;;;;11.93;4.38;;;9.20;99.90;;;;;;5088066;28;20040;-65
2023/04/24 07:58:32;;;;;;;5.45;3.20;;;9.20;99.90;;;;;;5072483;28;20086;-64
2023/04/24 08:00:58;;;;;;;9.13;2.88;;;9.20;99.90;;;;;;5089179;28;20051;-65
2023/04/24 08:03:24;;;;;;;6.72;2.58;;;9.10;99.90;;;;;;5089749;28;20040;-64
2023/04/24 08:05:50;;;;;;;7.95;3.22;;;9.10;99.90;;;;;;5090271;28;20040;-64
2023/04/24 08:08:16;;;;;;;6.80;2.05;;;9.10;99.90;;;;;;5072011;28;20085;-65
2023/04/24 08:10:43;;;;;;;7.57;3.65;;;9.00;99.90;;;;;;5087942;28;20056;-65
2023/04/24 08:13:09;;;;;;;3.70;2.33;;;9.00;99.90;;;;;;5090320;28;20040;-65
2023/04/24 08:15:35;;;;;;;7.07;3.50;;;9.00;99.90;;;;;;5071365;28;20047;-65
2023/04/24 08:18:00;;;;;;;2.78;1.80;;;9.00;99.90;;;;;;5088877;28;20075;-65
2023/04/24 08:20:26;;;;;;;3.72;2.10;;;9.00;99.90;;;;;;5088872;28;20067;-65
2023/04/24 08:22:52;;;;;;;3.45;1.85;;;9.00;99.90;;;;;;5087963;28;20047;-66
2023/04/24 08:25:19;;;;;;;3.92;2.15;;;9.00;99.90;;;;;;5088394;28;20050;-65
2023/04/24 08:27:44;;;;;;;4.72;1.48;;;9.10;99.90;;;;;;5088826;28;20397;-65
2023/04/24 08:30:10;;;;;;;4.45;2.15;;;9.10;99.90;;;;;;5087981;28;20040;-65
2023/04/24 08:32:37;;;;;;;2.42;1.17;;;9.20;99.90;;;;;;5090030;28;20115;-65
2023/04/24 08:35:03;;;;;;;7.63;1.70;;;9.20;99.90;;;;;;5088561;28;20036;-65
2023/04/24 08:37:29;;;;;;;1.80;1.25;;;9.20;99.90;;;;;;5089352;28;20043;-65
2023/04/24 08:39:55;;;;;;;2.40;1.40;;;9.30;99.90;;;;;;5088593;28;20036;-65
2023/04/24 08:42:21;;;;;;;1.48;1.30;;;9.30;99.90;;;;;;5071920;28;20079;-65
2023/04/24 08:44:49;;;;;;;3.30;1.50;;;9.30;99.90;;;;;;5089524;28;20591;-65
2023/04/24 08:47:15;;;;;;;2.60;1.35;;;9.30;99.90;;;;;;5071642;28;20127;-65
2023/04/24 08:49:42;;;;;;;2.65;1.02;;;9.30;99.90;;;;;;5088480;28;20036;-65
2023/04/24 08:52:08;;;;;;;2.10;1.08;;;9.30;99.90;;;;;;5071184;28;20036;-64
2023/04/24 08:54:35;;;;;;;3.33;1.85;;;9.30;99.90;;;;;;5088487;28;20048;-65
2023/04/24 08:57:03;;;;;;;3.13;1.85;;;9.30;99.90;;;;;;5088407;28;20044;-65
2023/04/24 08:59:29;;;;;;;3.65;1.60;;;9.30;99.90;;;;;;5088131;28;20024;-65
2023/04/24 09:01:56;;;;;;;2.22;1.25;;;9.40;99.90;;;;;;5090077;28;20062;-65
2023/04/24 09:04:24;;;;;;;5.55;1.92;;;9.40;99.90;;;;;;5088276;28;20051;-65
2023/04/24 09:06:51;;;;;;;1.40;1.23;;;9.50;99.90;;;;;;5090901;28;20082;-65
2023/04/24 09:09:18;;;;;;;4.05;1.52;;;9.50;99.90;;;;;;5093341;28;20036;-65
2023/04/24 09:11:44;;;;;;;1.92;1.38;;;9.60;99.90;;;;;;5091034;28;20048;-64
2023/04/24 09:14:10;;;;;;;1.83;1.42;;;9.70;99.90;;;;;;5103753;28;20032;-65
2023/04/24 09:16:36;;;;;;;4.43;0.65;;;9.80;99.90;;;;;;5093070;28;20040;-63
2023/04/24 09:19:03;;;;;;;1.65;1.10;;;9.90;99.90;;;;;;5091155;28;20051;-66
2023/04/24 09:21:33;;;;;;;4.18;1.02;;;9.90;99.90;;;;;;5093359;28;20036;-65
2023/04/24 09:24:05;;;;;;;1.20;0.80;;;9.90;99.90;;;;;;5091449;28;20506;-65
2023/04/24 09:26:34;;;;;;;3.28;0.85;;;10.00;99.90;;;;;;5090266;28;20401;-65
2023/04/24 09:29:00;;;;;;;2.25;1.02;;;10.00;99.90;;;;;;5093126;28;20600;-65
2023/04/24 09:31:29;;;;;;;1.73;1.20;;;10.00;99.90;;;;;;5091512;28;20044;-64
2023/04/24 09:34:00;;;;;;;1.10;0.63;;;9.90;99.90;;;;;;5090913;28;20044;-65
2023/04/24 09:36:29;;;;;;;2.20;0.90;;;9.90;99.90;;;;;;5092859;28;20115;-64
2023/04/24 09:39:02;;;;;;;2.72;0.88;;;9.80;99.90;;;;;;5092993;28;20032;-65
2023/04/24 09:41:31;;;;;;;2.67;1.15;;;9.70;99.90;;;;;;5092045;28;20048;-64
2023/04/24 09:44:01;;;;;;;1.65;0.68;;;9.60;99.90;;;;;;5091015;28;20611;-65
2023/04/24 09:46:34;;;;;;;1.42;0.90;;;9.50;99.90;;;;;;5090976;28;20039;-65
2023/04/24 09:49:10;;;;;;;0.68;0.50;;;9.40;99.90;;;;;;5091238;28;20044;-63
2023/04/24 09:51:37;;;;;;;0.60;0.57;;;9.40;99.90;;;;;;5074219;28;20047;-64
2023/04/24 09:54:10;;;;;;;2.15;0.50;;;9.40;99.90;;;;;;5091660;28;20195;-65
2023/04/24 09:56:36;;;;;;;1.05;0.73;;;9.30;99.90;;;;;;5091361;28;20047;-65
2023/04/24 09:59:06;;;;;;;7.50;0.70;;;9.40;99.90;;;;;;5091452;28;20036;-65
2023/04/24 10:01:32;;;;;;;;;;;9.40;99.90;;;;;;5092208;28;20055;-64
2023/04/24 10:03:58;;;;;;;2.03;1.15;;;9.40;99.90;;;;;;5090924;28;19916;-64
2023/04/24 10:06:32;;;;;;;0.82;0.60;;;9.40;99.90;;;;;;5090211;28;20036;-65
2023/04/24 10:08:59;;;;;;;1.50;0.65;;;9.40;99.90;;;;;;5089293;28;20047;-64
2023/04/24 10:11:27;;;;;;;1.23;0.75;;;9.50;99.90;;;;;;5089355;28;20060;-65
2023/04/24 10:13:53;;;;;;;1.67;0.73;;;9.50;99.90;;;;;;5091080;28;20139;-64
2023/04/24 10:16:22;;;;;;;3.03;1.15;;;9.60;99.90;;;;;;5090293;28;20066;-64
2023/04/24 10:18:48;;;;;;;8.77;0.80;;;9.60;99.90;;;;;;5089796;28;20036;-65
2023/04/24 10:21:15;;;;;;;1.60;0.47;;;9.70;99.90;;;;;;5090705;28;20040;-63
2023/04/24 10:23:42;;;;;;;4.03;0.60;;;9.80;99.90;;;;;;5089057;28;20143;-63
2023/04/24 10:26:09;;;;;;;1.30;0.73;;;9.80;99.90;;;;;;5096504;28;20036;-63
2023/04/24 10:28:36;;;;;;;3.50;0.82;;;9.80;99.90;;;;;;5088680;28;20123;-64
2023/04/24 10:31:03;;;;;;;17.42;1.52;;;9.70;99.90;;;;;;5087898;28;20139;-64
2023/04/24 10:33:30;;;;;;;0.40;0.40;;;9.70;99.90;;;;;;5089451;28;20054;-63
2023/04/24 10:35:58;;;;;;;1.67;0.30;;;9.60;99.90;;;;;;5090923;28;20036;-64
2023/04/24 10:38:26;;;;;;;1.67;0.50;;;9.50;99.90;;;;;;5089778;28;20043;-63
2023/04/24 10:41:07;;;;;;;1.95;1.13;;;9.50;99.90;;;;;;5090407;28;20055;-63
2023/04/24 10:43:33;;;;;;;0.43;0.30;;;9.50;99.90;;;;;;5090978;28;20047;-63
2023/04/24 10:46:05;;;;;;;1.58;1.00;;;9.40;99.90;;;;;;5090350;28;20039;-63
2023/04/24 10:48:32;;;;;;;2.70;0.70;;;9.50;99.90;;;;;;5091481;28;20040;-63
2023/04/24 10:50:58;;;;;;;1.95;0.40;;;9.50;99.90;;;;;;5089285;28;20478;-64
2023/04/24 10:53:28;;;;;;;2.17;0.50;;;9.50;99.90;;;;;;5090362;28;20421;-63
2023/04/24 10:56:07;;;;;;;0.50;0.47;;;9.60;99.90;;;;;;5091331;28;20071;-64
2023/04/24 10:58:59;;;;;;;0.45;0.43;;;9.70;99.90;;;;;;5089432;28;20063;-63
2023/04/24 11:01:30;;;;;;;0.70;0.30;;;9.80;99.90;;;;;;5087729;28;20047;-63
2023/04/24 11:03:58;;;;;;;0.55;0.30;;;10.00;99.90;;;;;;5090774;28;20036;-64
2023/04/24 11:06:37;;;;;;;0.60;0.52;;;10.20;99.90;;;;;;5090974;28;20040;-63
2023/04/24 11:09:13;;;;;;;1.00;0.65;;;10.30;99.90;;;;;;5090000;28;20040;-62
2023/04/24 11:11:45;;;;;;;0.63;0.30;;;10.30;99.90;;;;;;5071589;28;20056;-64
2023/04/24 11:14:13;;;;;;;0.55;0.40;;;10.20;99.90;;;;;;5089595;28;20036;-63
2023/04/24 11:16:52;;;;;;;1.50;0.40;;;10.10;99.90;;;;;;5090828;28;20036;-62
2023/04/24 11:19:19;;;;;;;1.45;0.80;;;9.90;99.90;;;;;;5071863;28;20128;-63
2023/04/24 11:22:14;;;;;;;1.02;0.63;;;9.80;99.90;;;;;;5088763;28;20042;-63
2023/04/24 11:24:47;;;;;;;2.88;0.77;;;9.70;99.90;;;;;;5087234;28;20101;-64
2023/04/24 11:27:21;;;;;;;0.35;0.30;;;9.60;99.90;;;;;;5081079;28;20044;-62
2023/04/24 11:30:01;;;;;;;1.50;0.60;;;9.60;99.90;;;;;;5090083;28;20044;-63
2023/04/24 11:32:33;;;;;;;1.20;0.40;;;9.70;99.90;;;;;;5090090;28;20051;-64
2023/04/24 11:35:06;;;;;;;0.43;0.30;;;9.80;99.90;;;;;;5090790;28;20039;-63
2023/04/24 11:37:47;;;;;;;0.20;0.20;;;9.90;99.90;;;;;;5089440;28;20424;-63
2023/04/24 11:40:15;;;;;;;0.57;0.32;;;10.00;99.90;;;;;;5089913;28;20048;-63
2023/04/24 11:42:45;;;;;;;3.10;0.60;;;10.10;99.90;;;;;;5090472;28;20036;-61
2023/04/24 11:45:12;;;;;;;4.05;0.40;;;10.00;99.90;;;;;;5090242;28;20500;-62
2023/04/24 11:47:39;;;;;;;0.35;0.20;;;10.00;99.90;;;;;;5088529;28;20059;-62
2023/04/24 11:50:07;;;;;;;0.30;0.20;;;10.00;99.90;;;;;;5089287;28;20397;-62
2023/04/24 11:52:37;;;;;;;0.20;0.20;;;10.00;99.90;;;;;;5071838;28;20044;-62
2023/04/24 11:55:03;;;;;;;0.73;0.43;;;10.00;99.90;;;;;;5088931;28;20040;-62
2023/04/24 11:57:33;;;;;;;1.63;0.15;;;10.00;99.90;;;;;;5089231;28;20420;-63
2023/04/24 11:59:59;;;;;;;;;;;10.10;99.90;;;;;;5090049;28;20044;-63
2023/04/24 12:02:26;;;;;;;0.55;0.25;;;10.10;99.90;;;;;;5088880;28;19916;-64
2023/04/24 12:04:53;;;;;;;1.35;0.22;;;10.20;99.90;;;;;;5088736;28;20044;-63
2023/04/24 12:07:19;;;;;;;1.40;0.45;;;10.30;99.90;;;;;;5087630;28;20158;-63
2023/04/24 12:09:49;;;;;;;2.50;0.32;;;10.60;99.90;;;;;;5090163;28;20039;-63
2023/04/24 12:12:16;;;;;;;;;;;10.70;99.90;;;;;;5088719;28;20063;-62
2023/04/24 12:15:09;;;;;;;0.15;0.13;;;10.70;99.90;;;;;;5088456;28;20031;-63
2023/04/24 12:17:36;;;;;;;3.42;0.50;;;10.70;99.90;;;;;;5085962;28;20054;-62
2023/04/24 12:20:06;;;;;;;3.35;0.20;;;10.60;99.90;;;;;;5088767;28;20490;-62
2023/04/24 12:22:55;;;;;;;0.75;0.45;;;10.40;99.90;;;;;;5087959;28;20044;-62
2023/04/24 12:25:24;;;;;;;0.30;0.28;;;10.20;99.90;;;;;;5088712;28;20051;-61
2023/04/24 12:28:10;;;;;;;0.22;0.22;;;9.90;99.90;;;;;;5087165;28;20040;-63
2023/04/24 12:30:41;;;;;;;2.90;0.63;;;9.70;99.90;;;;;;5087375;28;20036;-62
2023/04/24 12:33:07;;;;;;;0.88;0.20;;;9.60;99.90;;;;;;5070397;28;20547;-63
2023/04/24 12:35:35;;;;;;;4.47;0.80;;;9.50;99.90;;;;;;5087799;28;20028;-63
2023/04/24 12:38:12;;;;;;;1.75;0.65;;;9.50;99.90;;;;;;5089988;28;20064;-63
2023/04/24 12:40:38;;;;;;;0.88;0.30;;;9.70;99.90;;;;;;5092862;28;20048;-63
2023/04/24 12:43:24;;;;;;;0.28;0.20;;;9.90;99.90;;;;;;5075112;28;20043;-63
2023/04/24 12:45:50;;;;;;;0.10;0.10;;;10.00;99.90;;;;;;5092389;28;20055;-62
2023/04/24 12:48:16;;;;;;;1.42;0.30;;;10.10;99.90;;;;;;5092660;28;20474;-62
2023/04/24 12:50:42;;;;;;;1.58;0.40;;;10.20;99.90;;;;;;5091657;28;20047;-63
2023/04/24 12:53:09;;;;;;;0.45;0.35;;;10.30;99.90;;;;;;5091935;28;20040;-62